Portada
METAR-TAF:

METAR-TAF

Aeroports :

Gove Peninsula, Austràlia

latitud: 12-16-12S, longitud: 136-49-06E, altitud: 62 m

Observació

L'informe es va fer fa 42 minuts, a les 20:00 UTC
Vent 4 kt del Sud-Est
Temperatura 22°C
Humitat 88%
Pressió 1014 hPa
Visibilitat 10 km o més

METAR: YPGV 012000Z AUTO 13004KT 9999 // NCD 22/20 Q1014

Hora: 06:12 (20:42 UTC)

Pronòstic

L'informe es va fer fa 1 hora i 20 minuts, a les 19:22 UTC
Pronòstic vàlid del 01 a les 20 UTC al 02 a les 08 UTC
Vent 6 kt del Est/Sud-Est
Visibilitat 10 km o més
Núvols disperses a una alçada de 2000 ft
A partir de les 02 a les 0000 UTC
Vent 17 kt del Sud-Est
Visibilitat 10 km o més
Núvols disperses a una alçada de 2500 ft

TAF: YPGV 011922Z 0120/0208 12006KT 9999 SCT020 FM020000 14017KT 9999 SCT025

Observacions i pronòstics meteorològics de més de 4000 aeroports (METAR i TAF).

Les estacions disponibles són els punts grocs i vermells al mapa.

Posi el ratolí al punt desitjat per veure el nom de l'estació.

Feu clic per veure les observacions i els pronòstics meteorològics.

Per canviar el mapa: feu clic els botons verds amb una creu de color negre per apropar; al botó verd amb un guió per allunyar la imatge; o en les fletxes verdes per a mapes adjacents.


METAR-TAF: